Time;durP1;ratioP1;P1;durP2;ratioP2;P2;SDS_P1;SDS_P2;PMS_P1;PMS_P2;Temp;Humidity;BMP_temperature;BMP_pressure;BME280_temperature;BME280_humidity;BME280_pressure;Samples;Min_cycle;Max_cycle;Signal;HPM_P1;HPM_P2
2023/09/16 00:00:40;;;;;;;9.23;5.22;;;22.90;84.20;;;;;;10867447;32;20291;-70
2023/09/16 00:06:42;;;;;;;6.45;4.78;;;22.90;84.30;;;;;;10866106;32;20050;-70
2023/09/16 00:12:44;;;;;;;8.23;4.80;;;22.80;84.40;;;;;;10865850;32;20019;-70
2023/09/16 00:18:47;;;;;;;8.02;4.35;;;22.80;84.50;;;;;;10866549;32;20104;-70
2023/09/16 00:24:49;;;;;;;7.35;4.18;;;22.90;84.80;;;;;;10864783;32;20027;-70
2023/09/16 00:30:51;;;;;;;8.55;6.15;;;22.90;85.10;;;;;;10865844;32;20020;-70
2023/09/16 00:36:53;;;;;;;7.97;5.75;;;22.90;85.00;;;;;;10865919;32;20074;-71
2023/09/16 00:42:55;;;;;;;8.00;5.47;;;22.80;84.80;;;;;;10863390;32;20042;-70
2023/09/16 00:48:58;;;;;;;7.03;4.60;;;22.70;84.80;;;;;;10865018;32;20103;-71
2023/09/16 00:55:01;;;;;;;9.55;6.57;;;22.70;85.00;;;;;;10864782;32;20007;-70
2023/09/16 01:01:03;;;;;;;9.73;7.70;;;22.60;85.20;;;;;;10864561;32;20043;-70
2023/09/16 01:07:05;;;;;;;8.77;6.07;;;22.70;84.90;;;;;;10865607;32;20012;-70
2023/09/16 01:13:09;;;;;;;7.10;5.18;;;22.70;84.70;;;;;;10864834;32;20069;-70
2023/09/16 01:19:45;;;;;;;8.18;5.87;;;22.60;84.80;;;;;;10864078;32;20011;-70
2023/09/16 01:25:48;;;;;;;7.87;5.22;;;22.50;84.90;;;;;;10863876;32;20039;-70
2023/09/16 01:31:54;;;;;;;10.00;7.72;;;22.40;85.10;;;;;;10863689;32;20023;-70
2023/09/16 01:37:59;;;;;;;10.13;7.68;;;22.50;85.00;;;;;;10850193;32;20039;-70
2023/09/16 01:44:04;;;;;;;9.65;6.32;;;22.40;85.00;;;;;;10863329;32;20012;-70
2023/09/16 01:50:07;;;;;;;9.48;7.18;;;22.30;85.00;;;;;;10863152;32;20310;-70
2023/09/16 01:56:09;;;;;;;12.60;7.93;;;22.30;85.10;;;;;;10849070;32;20015;-70
2023/09/16 02:02:11;;;;;;;14.57;8.27;;;22.20;85.10;;;;;;10864050;32;20046;-70
2023/09/16 02:08:14;;;;;;;10.00;6.75;;;22.30;85.10;;;;;;10862547;32;20074;-70
2023/09/16 02:14:18;;;;;;;11.20;8.10;;;22.20;85.00;;;;;;10864298;32;20020;-70
2023/09/16 02:20:20;;;;;;;14.45;6.57;;;22.00;85.10;;;;;;10863059;32;20381;-70
2023/09/16 02:26:22;;;;;;;8.60;6.18;;;22.00;85.10;;;;;;10862825;32;20492;-70
2023/09/16 02:32:24;;;;;;;8.18;5.53;;;22.10;85.00;;;;;;10848635;32;20035;-70
2023/09/16 02:38:26;;;;;;;9.10;7.32;;;22.10;84.80;;;;;;10862533;32;20553;-70
2023/09/16 02:44:30;;;;;;;8.38;6.43;;;22.10;85.00;;;;;;10863601;32;20046;-70
2023/09/16 02:50:37;;;;;;;9.45;7.32;;;21.90;85.00;;;;;;10861495;32;20054;-70
2023/09/16 02:56:39;;;;;;;6.97;4.57;;;21.80;85.20;;;;;;10861424;32;20026;-70
2023/09/16 03:02:41;;;;;;;9.73;7.30;;;21.90;85.10;;;;;;10862901;32;20042;-70
2023/09/16 03:08:44;;;;;;;11.12;9.30;;;22.00;85.30;;;;;;10867747;32;20384;-69
2023/09/16 03:14:48;;;;;;;11.82;6.70;;;22.00;85.20;;;;;;10867610;32;20039;-70
2023/09/16 03:20:50;;;;;;;7.35;4.90;;;21.90;85.00;;;;;;10854860;32;20015;-70
2023/09/16 03:26:52;;;;;;;9.65;6.03;;;21.80;85.10;;;;;;10867410;32;20050;-70
2023/09/16 03:32:54;;;;;;;9.52;6.18;;;21.80;85.10;;;;;;10867260;32;20051;-70
2023/09/16 03:38:56;;;;;;;12.37;7.97;;;21.80;85.20;;;;;;10865855;32;20054;-69
2023/09/16 03:44:59;;;;;;;10.70;6.80;;;21.80;85.10;;;;;;10867934;32;20042;-70
2023/09/16 03:51:06;;;;;;;8.10;6.15;;;21.70;85.20;;;;;;10866589;32;20028;-70
2023/09/16 03:57:09;;;;;;;9.73;6.60;;;21.70;85.30;;;;;;10866471;32;20046;-69
2023/09/16 04:03:11;;;;;;;8.63;6.53;;;21.70;85.20;;;;;;10850492;32;20051;-70
2023/09/16 04:09:13;;;;;;;9.95;6.87;;;21.70;85.10;;;;;;10866211;32;20038;-70
2023/09/16 04:15:15;;;;;;;12.50;6.20;;;21.60;85.10;;;;;;10851543;32;20036;-70
2023/09/16 04:21:18;;;;;;;9.18;6.57;;;21.50;85.10;;;;;;10865816;32;20016;-70
2023/09/16 04:27:20;;;;;;;8.32;6.20;;;21.40;85.20;;;;;;10866128;32;20329;-70
2023/09/16 04:33:22;;;;;;;7.78;5.78;;;21.40;85.10;;;;;;10866646;32;20046;-69
2023/09/16 04:39:27;;;;;;;9.77;6.87;;;21.50;85.00;;;;;;10866471;32;20047;-69
2023/09/16 04:45:31;;;;;;;9.68;6.45;;;21.40;85.00;;;;;;10864988;32;20038;-70
2023/09/16 04:51:33;;;;;;;8.23;6.28;;;21.30;85.00;;;;;;10866106;32;20049;-70
2023/09/16 04:57:35;;;;;;;8.73;6.37;;;21.40;85.20;;;;;;10849942;32;20020;-70
2023/09/16 05:03:39;;;;;;;9.32;6.75;;;21.40;85.00;;;;;;10865195;32;20019;-69
2023/09/16 05:09:41;;;;;;;7.95;5.70;;;21.30;84.90;;;;;;10864309;32;20050;-70
2023/09/16 05:15:47;;;;;;;7.12;4.32;;;21.30;85.00;;;;;;10864324;32;20074;-70
2023/09/16 05:21:49;;;;;;;10.23;6.05;;;21.20;85.10;;;;;;10850862;32;20038;-69
2023/09/16 05:27:51;;;;;;;6.18;4.90;;;21.30;85.00;;;;;;10862875;32;20050;-69
2023/09/16 05:33:54;;;;;;;7.60;5.55;;;21.20;85.10;;;;;;10860532;32;20427;-70
2023/09/16 05:39:56;;;;;;;8.32;5.57;;;21.30;85.10;;;;;;10850961;32;20035;-69
2023/09/16 05:46:01;;;;;;;6.85;4.75;;;21.30;84.90;;;;;;10863231;32;20082;-70
2023/09/16 05:52:03;;;;;;;8.20;5.20;;;21.30;85.00;;;;;;10863168;32;20405;-70
2023/09/16 05:58:08;;;;;;;7.87;5.75;;;21.30;85.10;;;;;;10862992;32;20016;-69
2023/09/16 06:04:11;;;;;;;8.35;5.68;;;21.30;85.10;;;;;;10850305;32;20027;-70
2023/09/16 06:10:13;;;;;;;8.95;6.78;;;21.30;85.10;;;;;;10862625;32;20016;-70
2023/09/16 06:16:15;;;;;;;7.00;4.15;;;21.50;85.10;;;;;;10862428;32;20401;-70
2023/09/16 06:22:19;;;;;;;10.45;4.65;;;21.60;85.00;;;;;;10848481;32;20035;-70
2023/09/16 06:28:21;;;;;;;5.10;3.42;;;21.70;85.20;;;;;;10863218;32;20027;-70
2023/09/16 06:34:23;;;;;;;7.12;5.28;;;21.80;85.50;;;;;;10862508;32;20376;-70
2023/09/16 06:40:25;;;;;;;6.95;5.20;;;21.90;85.70;;;;;;10862131;32;20428;-71
2023/09/16 06:46:27;;;;;;;8.43;5.07;;;22.00;85.60;;;;;;10643368;27;7213207;-70
2023/09/16 06:52:29;;;;;;;6.03;4.07;;;22.00;85.70;;;;;;10824957;33;20424;-70
2023/09/16 06:58:33;;;;;;;4.60;2.92;;;22.00;85.70;;;;;;10811395;33;20066;-70
2023/09/16 07:04:36;;;;;;;5.72;3.62;;;22.00;85.70;;;;;;10810566;33;20341;-71
2023/09/16 07:10:39;;;;;;;5.43;3.50;;;22.10;85.70;;;;;;10811412;33;20032;-70
2023/09/16 07:16:41;;;;;;;3.95;2.62;;;22.30;85.40;;;;;;10823668;33;20039;-70
2023/09/16 07:22:43;;;;;;;4.10;2.50;;;22.30;85.40;;;;;;10824995;33;20042;-71
2023/09/16 07:28:45;;;;;;;3.78;2.70;;;22.40;85.50;;;;;;10823663;33;20020;-71
2023/09/16 07:34:47;;;;;;;6.12;3.85;;;22.60;85.50;;;;;;10823508;33;20020;-70
2023/09/16 07:40:52;;;;;;;5.32;4.15;;;22.60;85.70;;;;;;10816019;33;20120;-70
2023/09/16 07:47:01;;;;;;;7.28;3.90;;;22.60;85.30;;;;;;10786237;33;20192;-71
2023/09/16 07:53:31;;;;;;;6.62;4.18;;;22.70;85.30;;;;;;10788783;33;20046;-71
2023/09/16 07:59:34;;;;;;;3.67;2.65;;;22.70;85.30;;;;;;10793160;33;20021;-73
2023/09/16 08:05:57;;;;;;;5.80;3.60;;;22.80;85.30;;;;;;10794117;33;20047;-70
2023/09/16 08:11:59;;;;;;;5.57;3.85;;;22.90;85.20;;;;;;10790893;33;20078;-70
2023/09/16 08:18:02;;;;;;;4.97;3.03;;;22.90;84.90;;;;;;10790801;33;20343;-70
2023/09/16 08:24:07;;;;;;;3.20;2.28;;;23.00;85.00;;;;;;10792923;33;20029;-73
2023/09/16 08:30:11;;;;;;;3.97;2.60;;;23.00;85.10;;;;;;10788237;33;20452;-70
2023/09/16 08:36:29;;;;;;;3.67;2.23;;;23.20;84.70;;;;;;10792784;33;20047;-70
2023/09/16 08:42:39;;;;;;;4.72;2.97;;;23.30;84.20;;;;;;10791501;33;20020;-70
2023/09/16 08:48:42;;;;;;;;;;;23.30;84.10;;;;;;10791448;33;20397;-70
2023/09/16 08:54:47;;;;;;;3.75;2.37;;;23.40;83.90;;;;;;10791010;33;19970;-70
2023/09/16 09:00:49;;;;;;;5.45;3.08;;;23.60;83.20;;;;;;10791234;33;20338;-70
2023/09/16 09:06:56;;;;;;;4.00;2.53;;;23.80;82.40;;;;;;10791310;33;20016;-71
2023/09/16 09:13:06;;;;;;;5.00;2.92;;;23.80;82.30;;;;;;10789845;33;20031;-70
2023/09/16 09:19:27;;;;;;;4.05;2.55;;;23.90;82.00;;;;;;10788301;33;20028;-70
2023/09/16 09:25:36;;;;;;;3.58;2.40;;;24.00;81.90;;;;;;10790670;33;20331;-71
2023/09/16 09:31:39;;;;;;;2.37;1.37;;;24.20;81.20;;;;;;10790514;33;20066;-70
2023/09/16 09:37:41;;;;;;;3.72;2.20;;;24.30;81.00;;;;;;10790401;33;20054;-70
2023/09/16 09:43:44;;;;;;;2.87;2.00;;;24.40;80.10;;;;;;10790108;33;20093;-70
2023/09/16 09:49:47;;;;;;;3.85;2.40;;;24.60;79.80;;;;;;10789366;33;20028;-71
2023/09/16 09:55:50;;;;;;;3.92;2.45;;;24.70;79.30;;;;;;10790269;33;20047;-71
2023/09/16 10:01:52;;;;;;;3.15;2.42;;;24.80;78.30;;;;;;10788448;33;20050;-70
2023/09/16 10:08:05;;;;;;;3.47;2.03;;;24.80;78.50;;;;;;10785201;33;20024;-70
2023/09/16 10:14:07;;;;;;;5.50;2.50;;;24.80;78.30;;;;;;10762773;33;20416;-70
2023/09/16 10:20:13;;;;;;;3.50;2.58;;;24.80;78.30;;;;;;10788579;33;20016;-71
2023/09/16 10:26:21;;;;;;;6.37;2.45;;;24.90;77.90;;;;;;10776107;33;20054;-71
2023/09/16 10:32:24;;;;;;;5.40;2.00;;;24.90;77.50;;;;;;10789314;33;20020;-70
2023/09/16 10:38:27;;;;;;;6.07;2.53;;;25.00;77.60;;;;;;10789370;32;20035;-71
2023/09/16 10:44:30;;;;;;;3.87;2.20;;;25.00;77.60;;;;;;10820285;33;20017;-71
2023/09/16 10:50:36;;;;;;;3.42;1.90;;;25.00;77.10;;;;;;10781121;33;20044;-71
2023/09/16 10:56:44;;;;;;;3.35;2.17;;;25.00;77.00;;;;;;10790318;33;20031;-70
2023/09/16 11:03:01;;;;;;;7.15;2.47;;;25.00;77.00;;;;;;10820169;33;20405;-70
2023/09/16 11:09:05;;;;;;;4.20;2.35;;;24.90;76.40;;;;;;10819069;33;20028;-70
2023/09/16 11:15:46;;;;;;;3.35;2.30;;;24.90;76.60;;;;;;10805747;33;20036;-70
2023/09/16 11:22:07;;;;;;;4.85;3.10;;;24.90;76.50;;;;;;10809280;33;20346;-70
2023/09/16 11:28:19;;;;;;;3.90;2.87;;;24.90;76.40;;;;;;10830582;32;20032;-70
2023/09/16 11:34:42;;;;;;;4.35;2.55;;;24.90;76.30;;;;;;10795637;33;20163;-70
2023/09/16 11:40:52;;;;;;;4.60;2.60;;;24.90;76.30;;;;;;10782951;33;20071;-70
2023/09/16 11:46:54;;;;;;;4.12;2.58;;;24.90;76.40;;;;;;10794763;33;20068;-71
2023/09/16 11:52:57;;;;;;;5.75;2.47;;;24.90;76.00;;;;;;10794658;32;20036;-70
2023/09/16 11:59:41;;;;;;;5.85;2.35;;;24.90;75.90;;;;;;10775913;32;20346;-70
2023/09/16 12:05:43;;;;;;;4.30;2.72;;;25.00;75.80;;;;;;10869105;32;20060;-70
2023/09/16 12:11:49;;;;;;;3.97;2.58;;;25.00;75.90;;;;;;10867899;32;20028;-70
2023/09/16 12:17:52;;;;;;;3.65;2.15;;;25.10;75.80;;;;;;10867809;32;20418;-70
2023/09/16 12:23:54;;;;;;;5.22;3.72;;;25.10;75.80;;;;;;10867889;32;20051;-71
2023/09/16 12:29:56;;;;;;;4.00;2.87;;;25.20;75.50;;;;;;10868340;32;20062;-70
2023/09/16 12:35:58;;;;;;;3.95;2.70;;;25.20;75.40;;;;;;10867683;32;20023;-70
2023/09/16 12:42:02;;;;;;;5.43;3.03;;;25.20;75.50;;;;;;10811520;32;20330;-71
2023/09/16 12:48:07;;;;;;;4.65;3.22;;;25.30;75.20;;;;;;10790733;33;20085;-70
2023/09/16 12:54:14;;;;;;;5.07;2.58;;;25.30;75.10;;;;;;10790998;33;20386;-70
2023/09/16 13:00:41;;;;;;;3.42;2.35;;;25.30;75.20;;;;;;10792061;33;20021;-70
2023/09/16 13:06:44;;;;;;;3.67;2.53;;;25.30;75.10;;;;;;10790559;33;20399;-70
2023/09/16 13:12:48;;;;;;;4.68;3.40;;;25.30;75.30;;;;;;10790317;33;20433;-70
2023/09/16 13:18:53;;;;;;;4.07;2.78;;;25.40;75.40;;;;;;10777733;32;20307;-70
2023/09/16 13:25:10;;;;;;;5.82;3.10;;;25.40;75.30;;;;;;10787175;33;20051;-77
2023/09/16 13:31:35;;;;;;;6.15;3.50;;;25.40;75.10;;;;;;10656848;33;20087;-76
2023/09/16 13:37:39;;;;;;;7.50;3.60;;;25.50;75.30;;;;;;10672583;33;20072;-70
2023/09/16 13:43:48;;;;;;;5.30;2.97;;;25.50;75.10;;;;;;10704951;33;20040;-70
2023/09/16 13:49:50;;;;;;;5.03;3.72;;;25.60;75.10;;;;;;10711784;33;20055;-70
2023/09/16 13:56:11;;;;;;;11.02;4.07;;;25.70;74.90;;;;;;10710778;33;20025;-71
2023/09/16 14:02:15;;;;;;;8.57;5.90;;;25.80;74.50;;;;;;10713058;33;20051;-72
2023/09/16 14:08:17;;;;;;;5.53;3.37;;;26.00;74.10;;;;;;10770821;33;20330;-70
2023/09/16 14:14:21;;;;;;;6.47;3.97;;;26.20;73.60;;;;;;10788707;33;20008;-70
2023/09/16 14:20:49;;;;;;;7.07;4.15;;;26.40;73.20;;;;;;10775368;33;20040;-70
2023/09/16 14:26:55;;;;;;;6.72;4.32;;;26.50;72.80;;;;;;10789847;33;20016;-70
2023/09/16 14:33:55;;;;;;;8.75;3.72;;;26.30;72.80;;;;;;10712392;33;20430;-70
2023/09/16 14:39:58;;;;;;;5.32;3.78;;;26.30;73.00;;;;;;10712187;33;20028;-70
2023/09/16 14:46:04;;;;;;;6.07;2.80;;;26.60;72.70;;;;;;10727580;27;20040;-70
2023/09/16 14:52:17;;;;;;;7.55;4.50;;;26.70;72.40;;;;;;10820281;33;20028;-70
2023/09/16 14:58:44;;;;;;;11.65;3.33;;;26.80;71.70;;;;;;10821140;33;20012;-69
2023/09/16 15:04:49;;;;;;;4.93;3.20;;;26.70;71.60;;;;;;10819849;33;20027;-69
2023/09/16 15:10:52;;;;;;;7.05;3.00;;;26.80;71.80;;;;;;10820941;33;20020;-70
2023/09/16 15:16:55;;;;;;;6.32;4.22;;;27.00;71.70;;;;;;10805205;33;20150;-70
2023/09/16 15:22:57;;;;;;;5.22;3.47;;;27.30;70.90;;;;;;10806163;33;20012;-71
2023/09/16 15:29:03;;;;;;;6.50;4.47;;;27.80;69.90;;;;;;10820493;33;20052;-71
2023/09/16 15:35:23;;;;;;;7.37;4.22;;;27.80;71.50;;;;;;10808777;33;20051;-70
2023/09/16 15:41:30;;;;;;;;;;;27.30;71.90;;;;;;10807813;33;20051;-70
2023/09/16 15:47:47;;;;;;;4.25;2.90;;;27.30;72.20;;;;;;10808391;32;19931;-70
2023/09/16 15:53:53;;;;;;;4.95;2.97;;;27.30;72.20;;;;;;10817233;33;20035;-70
2023/09/16 15:59:55;;;;;;;4.25;3.33;;;27.30;71.90;;;;;;10818695;33;20345;-70
2023/09/16 16:05:57;;;;;;;5.37;3.33;;;27.30;71.90;;;;;;10818434;33;20020;-70
2023/09/16 16:11:59;;;;;;;4.57;3.30;;;27.20;72.10;;;;;;10821448;32;20027;-70
2023/09/16 16:18:03;;;;;;;5.25;3.55;;;27.10;72.30;;;;;;10821712;33;20401;-70
2023/09/16 16:24:06;;;;;;;4.40;2.87;;;26.90;72.60;;;;;;10824549;33;20086;-70
2023/09/16 16:30:08;;;;;;;8.00;3.67;;;26.80;72.80;;;;;;10824237;33;20028;-70
2023/09/16 16:36:10;;;;;;;5.60;3.60;;;26.60;73.00;;;;;;10824634;33;20028;-70
2023/09/16 16:42:13;;;;;;;8.07;3.03;;;26.30;73.40;;;;;;10811857;32;20024;-71
2023/09/16 16:48:15;;;;;;;4.80;3.22;;;26.20;73.70;;;;;;10823753;33;20330;-71
2023/09/16 16:54:18;;;;;;;5.55;3.00;;;26.00;74.00;;;;;;10807083;33;20050;-70
2023/09/16 17:00:22;;;;;;;7.93;2.95;;;25.80;74.00;;;;;;10823543;33;20028;-70
2023/09/16 17:06:51;;;;;;;5.57;3.33;;;25.70;74.40;;;;;;10823306;33;20046;-70
2023/09/16 17:12:56;;;;;;;4.87;3.00;;;25.60;74.60;;;;;;10826323;33;20058;-70
2023/09/16 17:19:18;;;;;;;5.43;3.60;;;25.50;75.00;;;;;;10814812;33;20051;-70
2023/09/16 17:25:21;;;;;;;6.82;4.28;;;25.30;75.40;;;;;;10828613;32;20028;-70
2023/09/16 17:31:25;;;;;;;5.12;3.37;;;25.30;75.90;;;;;;10814274;33;20035;-70
2023/09/16 17:37:28;;;;;;;5.90;2.92;;;25.20;76.20;;;;;;10827158;33;20382;-70
2023/09/16 17:43:39;;;;;;;5.53;2.78;;;25.20;76.40;;;;;;10826298;33;20042;-70
2023/09/16 17:49:42;;;;;;;5.85;2.45;;;25.00;76.70;;;;;;10826043;33;20062;-70
2023/09/16 17:55:45;;;;;;;4.95;3.30;;;25.00;76.90;;;;;;10823689;32;20346;-70
2023/09/16 18:02:01;;;;;;;5.78;3.10;;;24.90;77.00;;;;;;10824154;32;20031;-70
2023/09/16 18:08:04;;;;;;;4.68;3.05;;;24.90;77.10;;;;;;10825835;33;20015;-70
2023/09/16 18:14:06;;;;;;;5.20;3.37;;;24.90;77.40;;;;;;10808537;32;20125;-70
2023/09/16 18:20:10;;;;;;;5.78;3.12;;;24.80;77.50;;;;;;10821405;32;20059;-71
2023/09/16 18:26:12;;;;;;;6.45;4.75;;;24.80;77.80;;;;;;10808152;32;20035;-70
2023/09/16 18:32:15;;;;;;;6.62;4.30;;;24.60;78.40;;;;;;10806646;33;20047;-70
2023/09/16 18:38:17;;;;;;;13.65;4.12;;;24.60;78.60;;;;;;10814925;32;20054;-70
2023/09/16 18:44:23;;;;;;;8.82;3.90;;;24.60;78.60;;;;;;10848175;32;20023;-70
2023/09/16 18:50:29;;;;;;;6.53;3.55;;;24.60;78.70;;;;;;10848281;32;20067;-70
2023/09/16 18:56:32;;;;;;;5.40;3.78;;;24.50;78.90;;;;;;10861424;32;20015;-70
2023/09/16 19:02:34;;;;;;;6.60;3.15;;;24.40;78.90;;;;;;10858602;32;20322;-70
2023/09/16 19:08:36;;;;;;;7.18;3.55;;;24.30;79.00;;;;;;10861657;32;20380;-70
2023/09/16 19:14:38;;;;;;;3.72;2.45;;;24.30;79.20;;;;;;10861712;32;20027;-70
2023/09/16 19:20:43;;;;;;;4.50;2.92;;;24.30;79.40;;;;;;10862063;32;20023;-70
2023/09/16 19:26:45;;;;;;;4.57;2.80;;;24.30;79.50;;;;;;10861833;32;20420;-70
2023/09/16 19:32:48;;;;;;;3.35;2.55;;;24.30;79.70;;;;;;10861149;32;20035;-70
2023/09/16 19:38:50;;;;;;;6.45;2.92;;;24.20;79.70;;;;;;10860970;32;20038;-70
2023/09/16 19:44:53;;;;;;;6.45;3.08;;;24.20;79.90;;;;;;10860318;32;20024;-70
2023/09/16 19:50:55;;;;;;;5.22;2.92;;;24.00;79.90;;;;;;10866694;32;20031;-70
2023/09/16 19:56:57;;;;;;;2.92;2.03;;;24.00;80.00;;;;;;10865131;32;20024;-70
2023/09/16 20:02:59;;;;;;;3.90;2.70;;;23.90;80.20;;;;;;10863430;32;20046;-70
2023/09/16 20:09:02;;;;;;;3.62;2.40;;;23.90;80.50;;;;;;10866161;32;20080;-70
2023/09/16 20:15:05;;;;;;;6.47;3.53;;;23.90;80.60;;;;;;10866062;32;20303;-70
2023/09/16 20:21:09;;;;;;;5.43;3.97;;;23.90;80.70;;;;;;10867633;32;20279;-70
2023/09/16 20:27:48;;;;;;;6.25;3.45;;;23.90;80.70;;;;;;10865678;32;20042;-70
2023/09/16 20:33:51;;;;;;;6.10;3.83;;;23.90;80.70;;;;;;10863451;32;20036;-70
2023/09/16 20:39:53;;;;;;;5.75;3.10;;;23.90;80.80;;;;;;10861220;32;20028;-70
2023/09/16 20:45:55;;;;;;;5.12;3.50;;;23.90;80.90;;;;;;10823107;32;20449;-76
2023/09/16 20:51:57;;;;;;;5.15;3.37;;;23.80;81.20;;;;;;10834475;32;20568;-76
2023/09/16 20:57:59;;;;;;;4.75;3.50;;;23.80;81.70;;;;;;10832270;32;20042;-76
2023/09/16 21:04:01;;;;;;;4.25;2.87;;;23.80;81.70;;;;;;10803979;32;20074;-76
2023/09/16 21:10:04;;;;;;;4.10;2.87;;;23.70;81.70;;;;;;10845930;32;20073;-76
2023/09/16 21:16:08;;;;;;;6.00;3.15;;;23.60;81.70;;;;;;10864843;32;20375;-76
2023/09/16 21:22:10;;;;;;;4.30;2.62;;;23.70;82.00;;;;;;10839454;32;20031;-76
2023/09/16 21:28:12;;;;;;;7.15;3.10;;;23.70;82.10;;;;;;10854165;32;20406;-76
2023/09/16 21:34:15;;;;;;;5.60;3.37;;;23.70;82.10;;;;;;10826900;32;20031;-77
2023/09/16 21:40:17;;;;;;;6.28;4.00;;;23.60;82.30;;;;;;10827145;33;20055;-77
2023/09/16 21:46:19;;;;;;;6.37;3.97;;;23.50;82.60;;;;;;10826164;32;20028;-76
2023/09/16 21:52:21;;;;;;;9.85;4.78;;;23.50;82.60;;;;;;10826039;33;20028;-76
2023/09/16 21:58:23;;;;;;;6.62;4.53;;;23.50;82.80;;;;;;10812439;33;20035;-76
2023/09/16 22:04:26;;;;;;;6.85;4.93;;;23.40;82.60;;;;;;10825854;33;20024;-76
2023/09/16 22:11:02;;;;;;;5.95;3.80;;;23.30;82.70;;;;;;10823906;32;20346;-76
2023/09/16 22:17:04;;;;;;;5.45;3.12;;;23.30;82.70;;;;;;10814460;32;20066;-76
2023/09/16 22:23:08;;;;;;;4.37;2.70;;;23.30;82.60;;;;;;10812348;32;20072;-76
2023/09/16 22:29:10;;;;;;;6.80;4.65;;;23.30;82.80;;;;;;10821183;33;20042;-76
2023/09/16 22:35:13;;;;;;;6.32;3.72;;;23.30;83.20;;;;;;10811962;33;20051;-76
2023/09/16 22:41:15;;;;;;;6.28;4.30;;;23.20;83.10;;;;;;10824916;33;20043;-76
2023/09/16 22:47:17;;;;;;;8.23;4.65;;;23.10;83.30;;;;;;10841141;26;20374;-75
2023/09/16 22:53:19;;;;;;;6.20;4.10;;;23.10;83.60;;;;;;10861621;32;20031;-75
2023/09/16 22:59:22;;;;;;;6.90;3.87;;;23.10;83.50;;;;;;10861366;32;20023;-75
2023/09/16 23:05:24;;;;;;;7.05;4.65;;;23.00;83.40;;;;;;10861153;32;20023;-76
2023/09/16 23:11:26;;;;;;;6.53;4.72;;;23.00;83.40;;;;;;10847801;32;20024;-75
2023/09/16 23:17:28;;;;;;;5.85;3.80;;;23.00;83.30;;;;;;10849054;32;20354;-76
2023/09/16 23:23:30;;;;;;;6.40;4.40;;;22.90;83.40;;;;;;10852371;32;20027;-76
2023/09/16 23:29:33;;;;;;;6.28;4.15;;;22.90;83.50;;;;;;10867230;32;20271;-75
2023/09/16 23:35:35;;;;;;;6.43;4.47;;;22.80;83.40;;;;;;10853459;32;20065;-75
2023/09/16 23:41:38;;;;;;;6.25;4.55;;;22.80;83.50;;;;;;10867141;32;20059;-75
2023/09/16 23:47:40;;;;;;;7.50;3.45;;;22.80;83.40;;;;;;10866878;32;20024;-76
2023/09/16 23:53:42;;;;;;;6.30;4.82;;;22.80;83.40;;;;;;10864309;32;20545;-76
2023/09/16 23:59:44;;;;;;;7.47;5.05;;;22.80;83.70;;;;;;10866572;32;20039;-75
